sensor_id;sensor_type;location;lat;lon;timestamp;temperature;humidity
23723;DHT22;12042;52.136;5.584;2023-03-31T05:39:39;10.60;99.90
23723;DHT22;12042;52.136;5.584;2023-03-31T05:42:05;10.60;99.90
23723;DHT22;12042;52.136;5.584;2023-03-31T05:44:32;10.50;99.90
23723;DHT22;12042;52.136;5.584;2023-03-31T05:46:57;10.60;99.90
23723;DHT22;12042;52.136;5.584;2023-03-31T05:49:23;10.60;99.90
23723;DHT22;12042;52.136;5.584;2023-03-31T05:51:48;10.60;99.90
23723;DHT22;12042;52.136;5.584;2023-03-31T05:54:14;10.60;99.90
23723;DHT22;12042;52.136;5.584;2023-03-31T05:56:40;10.60;99.90
23723;DHT22;12042;52.136;5.584;2023-03-31T05:59:05;10.60;99.90
23723;DHT22;12042;52.136;5.584;2023-03-31T06:01:31;10.60;99.90
23723;DHT22;12042;52.136;5.584;2023-03-31T06:03:57;10.60;99.90
23723;DHT22;12042;52.136;5.584;2023-03-31T06:06:22;10.60;99.90
23723;DHT22;12042;52.136;5.584;2023-03-31T06:08:49;10.60;99.90
23723;DHT22;12042;52.136;5.584;2023-03-31T06:11:17;10.60;99.90
23723;DHT22;12042;52.136;5.584;2023-03-31T06:13:44;10.60;99.90
23723;DHT22;12042;52.136;5.584;2023-03-31T06:16:11;10.50;99.90
23723;DHT22;12042;52.136;5.584;2023-03-31T06:18:38;10.60;99.90
23723;DHT22;12042;52.136;5.584;2023-03-31T06:21:04;10.60;99.90
23723;DHT22;12042;52.136;5.584;2023-03-31T06:23:30;10.60;99.90
23723;DHT22;12042;52.136;5.584;2023-03-31T06:26:00;10.70;99.90
23723;DHT22;12042;52.136;5.584;2023-03-31T06:28:27;10.60;99.90
23723;DHT22;12042;52.136;5.584;2023-03-31T06:31:00;10.70;99.90
23723;DHT22;12042;52.136;5.584;2023-03-31T06:33:27;10.70;99.90
23723;DHT22;12042;52.136;5.584;2023-03-31T06:35:55;10.70;99.90
23723;DHT22;12042;52.136;5.584;2023-03-31T06:38:21;10.70;99.90
23723;DHT22;12042;52.136;5.584;2023-03-31T06:40:46;10.80;99.90
23723;DHT22;12042;52.136;5.584;2023-03-31T06:43:12;10.80;99.90
23723;DHT22;12042;52.136;5.584;2023-03-31T06:45:37;10.80;99.90
23723;DHT22;12042;52.136;5.584;2023-03-31T06:48:03;10.90;99.90
23723;DHT22;12042;52.136;5.584;2023-03-31T06:50:29;10.90;99.90
23723;DHT22;12042;52.136;5.584;2023-03-31T06:52:54;11.00;99.90
23723;DHT22;12042;52.136;5.584;2023-03-31T06:55:22;10.90;99.90
23723;DHT22;12042;52.136;5.584;2023-03-31T06:57:47;10.90;99.90
23723;DHT22;12042;52.136;5.584;2023-03-31T07:00:13;11.00;99.90
23723;DHT22;12042;52.136;5.584;2023-03-31T07:02:39;11.00;99.90
23723;DHT22;12042;52.136;5.584;2023-03-31T07:05:05;11.00;99.90
23723;DHT22;12042;52.136;5.584;2023-03-31T07:07:31;11.00;99.90
23723;DHT22;12042;52.136;5.584;2023-03-31T07:09:57;11.00;99.90
23723;DHT22;12042;52.136;5.584;2023-03-31T07:12:23;11.00;99.90
23723;DHT22;12042;52.136;5.584;2023-03-31T07:14:48;11.00;99.90
23723;DHT22;12042;52.136;5.584;2023-03-31T07:17:15;11.00;99.90
23723;DHT22;12042;52.136;5.584;2023-03-31T07:19:40;10.90;99.90
23723;DHT22;12042;52.136;5.584;2023-03-31T07:22:07;10.90;99.90
23723;DHT22;12042;52.136;5.584;2023-03-31T07:24:33;10.90;99.90
23723;DHT22;12042;52.136;5.584;2023-03-31T07:26:58;11.00;99.90
23723;DHT22;12042;52.136;5.584;2023-03-31T07:29:24;11.00;99.90
23723;DHT22;12042;52.136;5.584;2023-03-31T07:31:50;11.00;99.90
23723;DHT22;12042;52.136;5.584;2023-03-31T07:34:17;11.00;99.90
23723;DHT22;12042;52.136;5.584;2023-03-31T07:36:42;11.10;99.90
23723;DHT22;12042;52.136;5.584;2023-03-31T07:39:08;11.10;99.90
23723;DHT22;12042;52.136;5.584;2023-03-31T07:41:34;11.00;99.90
23723;DHT22;12042;52.136;5.584;2023-03-31T07:43:59;11.00;99.90
23723;DHT22;12042;52.136;5.584;2023-03-31T07:46:27;11.00;99.90
23723;DHT22;12042;52.136;5.584;2023-03-31T07:48:54;11.00;99.90
23723;DHT22;12042;52.136;5.584;2023-03-31T07:51:22;11.00;99.90
23723;DHT22;12042;52.136;5.584;2023-03-31T07:53:48;11.10;99.90
23723;DHT22;12042;52.136;5.584;2023-03-31T07:56:17;11.00;99.90
23723;DHT22;12042;52.136;5.584;2023-03-31T07:58:43;11.10;99.90
23723;DHT22;12042;52.136;5.584;2023-03-31T08:01:09;11.00;99.90
23723;DHT22;12042;52.136;5.584;2023-03-31T08:03:38;11.00;99.90
23723;DHT22;12042;52.136;5.584;2023-03-31T08:06:04;11.00;99.90
23723;DHT22;12042;52.136;5.584;2023-03-31T08:08:29;11.00;99.90
23723;DHT22;12042;52.136;5.584;2023-03-31T08:10:56;11.10;99.90
23723;DHT22;12042;52.136;5.584;2023-03-31T08:13:22;11.10;99.90
23723;DHT22;12042;52.136;5.584;2023-03-31T08:15:48;11.00;99.90
23723;DHT22;12042;52.136;5.584;2023-03-31T08:18:14;11.00;99.90
23723;DHT22;12042;52.136;5.584;2023-03-31T08:20:40;10.90;99.90
23723;DHT22;12042;52.136;5.584;2023-03-31T08:23:06;10.90;99.90
23723;DHT22;12042;52.136;5.584;2023-03-31T08:25:36;10.90;99.90
23723;DHT22;12042;52.136;5.584;2023-03-31T08:28:01;11.00;99.90
23723;DHT22;12042;52.136;5.584;2023-03-31T08:30:27;11.00;99.90
23723;DHT22;12042;52.136;5.584;2023-03-31T08:32:52;11.00;99.90
23723;DHT22;12042;52.136;5.584;2023-03-31T08:35:18;11.00;99.90
23723;DHT22;12042;52.136;5.584;2023-03-31T08:37:44;11.00;99.90
23723;DHT22;12042;52.136;5.584;2023-03-31T08:40:17;11.00;99.90
23723;DHT22;12042;52.136;5.584;2023-03-31T08:42:46;11.00;99.90
23723;DHT22;12042;52.136;5.584;2023-03-31T08:45:23;11.00;99.90
23723;DHT22;12042;52.136;5.584;2023-03-31T08:47:53;10.90;99.90
23723;DHT22;12042;52.136;5.584;2023-03-31T08:50:26;10.90;99.90
23723;DHT22;12042;52.136;5.584;2023-03-31T08:53:14;11.00;99.90
23723;DHT22;12042;52.136;5.584;2023-03-31T08:55:55;11.00;99.90
23723;DHT22;12042;52.136;5.584;2023-03-31T08:58:47;11.10;99.90
23723;DHT22;12042;52.136;5.584;2023-03-31T09:01:43;11.10;99.90
23723;DHT22;12042;52.136;5.584;2023-03-31T09:12:30;11.50;99.90
23723;DHT22;12042;52.136;5.584;2023-03-31T09:17:51;11.60;99.90
23723;DHT22;12042;52.136;5.584;2023-03-31T09:20:20;11.70;99.90
23723;DHT22;12042;52.136;5.584;2023-03-31T09:22:51;11.80;99.90
23723;DHT22;12042;52.136;5.584;2023-03-31T09:25:18;11.90;99.90
23723;DHT22;12042;52.136;5.584;2023-03-31T09:27:45;11.90;99.90
23723;DHT22;12042;52.136;5.584;2023-03-31T09:30:27;11.90;99.90
23723;DHT22;12042;52.136;5.584;2023-03-31T09:33:28;12.00;99.90
23723;DHT22;12042;52.136;5.584;2023-03-31T09:36:00;12.00;99.90
23723;DHT22;12042;52.136;5.584;2023-03-31T09:38:27;12.10;99.90
23723;DHT22;12042;52.136;5.584;2023-03-31T09:41:01;12.10;99.90
23723;DHT22;12042;52.136;5.584;2023-03-31T09:43:29;12.20;99.90
23723;DHT22;12042;52.136;5.584;2023-03-31T09:45:56;12.20;99.90
23723;DHT22;12042;52.136;5.584;2023-03-31T09:48:27;12.30;99.90
23723;DHT22;12042;52.136;5.584;2023-03-31T09:51:03;12.30;99.90
23723;DHT22;12042;52.136;5.584;2023-03-31T09:53:49;12.30;99.90
23723;DHT22;12042;52.136;5.584;2023-03-31T09:56:32;12.30;99.90
23723;DHT22;12042;52.136;5.584;2023-03-31T09:59:00;12.30;99.90
23723;DHT22;12042;52.136;5.584;2023-03-31T10:01:27;12.30;99.90
23723;DHT22;12042;52.136;5.584;2023-03-31T10:03:54;12.40;99.90
23723;DHT22;12042;52.136;5.584;2023-03-31T10:06:22;12.40;99.90
23723;DHT22;12042;52.136;5.584;2023-03-31T10:08:54;12.50;99.90
23723;DHT22;12042;52.136;5.584;2023-03-31T10:11:22;12.50;99.90
23723;DHT22;12042;52.136;5.584;2023-03-31T10:14:04;12.50;99.90
23723;DHT22;12042;52.136;5.584;2023-03-31T10:16:33;12.50;99.90
23723;DHT22;12042;52.136;5.584;2023-03-31T10:19:25;12.60;99.90
23723;DHT22;12042;52.136;5.584;2023-03-31T10:22:14;12.70;99.90
23723;DHT22;12042;52.136;5.584;2023-03-31T10:24:42;12.70;99.90
23723;DHT22;12042;52.136;5.584;2023-03-31T10:27:23;12.90;99.90
23723;DHT22;12042;52.136;5.584;2023-03-31T10:29:57;12.90;99.90
23723;DHT22;12042;52.136;5.584;2023-03-31T10:32:36;13.00;99.90
23723;DHT22;12042;52.136;5.584;2023-03-31T10:35:13;13.10;99.90
23723;DHT22;12042;52.136;5.584;2023-03-31T10:37:41;13.20;99.90
23723;DHT22;12042;52.136;5.584;2023-03-31T10:40:20;13.30;99.90
23723;DHT22;12042;52.136;5.584;2023-03-31T10:42:49;13.50;99.90
23723;DHT22;12042;52.136;5.584;2023-03-31T10:45:23;13.60;99.90
23723;DHT22;12042;52.136;5.584;2023-03-31T10:47:53;13.60;99.90
23723;DHT22;12042;52.136;5.584;2023-03-31T10:50:19;13.70;99.90
23723;DHT22;12042;52.136;5.584;2023-03-31T10:52:50;13.80;99.90
23723;DHT22;12042;52.136;5.584;2023-03-31T10:55:27;13.70;99.90
23723;DHT22;12042;52.136;5.584;2023-03-31T10:58:38;13.80;99.90
23723;DHT22;12042;52.136;5.584;2023-03-31T11:01:03;13.80;99.90
23723;DHT22;12042;52.136;5.584;2023-03-31T11:03:44;13.70;99.90
23723;DHT22;12042;52.136;5.584;2023-03-31T11:06:38;13.70;99.90
23723;DHT22;12042;52.136;5.584;2023-03-31T11:09:18;13.70;99.90
23723;DHT22;12042;52.136;5.584;2023-03-31T11:12:20;13.60;99.90
23723;DHT22;12042;52.136;5.584;2023-03-31T11:26:28;13.30;99.90
23723;DHT22;12042;52.136;5.584;2023-03-31T11:29:21;13.30;99.90
23723;DHT22;12042;52.136;5.584;2023-03-31T11:32:03;13.40;99.90
23723;DHT22;12042;52.136;5.584;2023-03-31T11:34:59;13.40;99.90
23723;DHT22;12042;52.136;5.584;2023-03-31T11:37:50;13.40;99.90
23723;DHT22;12042;52.136;5.584;2023-03-31T11:40:44;13.30;99.90
23723;DHT22;12042;52.136;5.584;2023-03-31T11:43:24;13.30;99.90
23723;DHT22;12042;52.136;5.584;2023-03-31T11:46:00;13.20;99.90
23723;DHT22;12042;52.136;5.584;2023-03-31T11:49:11;13.20;99.90
23723;DHT22;12042;52.136;5.584;2023-03-31T11:53:54;13.10;99.90
23723;DHT22;12042;52.136;5.584;2023-03-31T11:56:22;13.20;99.90
23723;DHT22;12042;52.136;5.584;2023-03-31T11:58:53;13.10;99.90
23723;DHT22;12042;52.136;5.584;2023-03-31T12:04:41;12.80;99.90
23723;DHT22;12042;52.136;5.584;2023-03-31T12:07:40;12.60;99.90
23723;DHT22;12042;52.136;5.584;2023-03-31T12:15:24;12.60;99.90
23723;DHT22;12042;52.136;5.584;2023-03-31T12:17:59;12.60;99.90
23723;DHT22;12042;52.136;5.584;2023-03-31T12:20:38;12.70;99.90
23723;DHT22;12042;52.136;5.584;2023-03-31T12:23:11;12.60;99.90
23723;DHT22;12042;52.136;5.584;2023-03-31T12:28:12;12.60;99.90
23723;DHT22;12042;52.136;5.584;2023-03-31T12:30:41;12.60;99.90
23723;DHT22;12042;52.136;5.584;2023-03-31T12:33:25;12.50;99.90
23723;DHT22;12042;52.136;5.584;2023-03-31T12:35:59;12.50;99.90
23723;DHT22;12042;52.136;5.584;2023-03-31T12:38:49;12.40;99.90
23723;DHT22;12042;52.136;5.584;2023-03-31T12:44:32;12.40;99.90
23723;DHT22;12042;52.136;5.584;2023-03-31T12:55:26;12.50;99.90
23723;DHT22;12042;52.136;5.584;2023-03-31T13:03:41;12.60;99.90
23723;DHT22;12042;52.136;5.584;2023-03-31T13:06:10;12.50;99.90
23723;DHT22;12042;52.136;5.584;2023-03-31T13:19:50;12.90;99.90
23723;DHT22;12042;52.136;5.584;2023-03-31T13:22:36;12.90;99.90
23723;DHT22;12042;52.136;5.584;2023-03-31T13:25:32;12.90;99.90
23723;DHT22;12042;52.136;5.584;2023-03-31T13:30:48;13.00;99.90
23723;DHT22;12042;52.136;5.584;2023-03-31T13:33:41;13.00;99.90
23723;DHT22;12042;52.136;5.584;2023-03-31T13:47:50;12.80;99.90
23723;DHT22;12042;52.136;5.584;2023-03-31T13:59:12;12.70;99.90
23723;DHT22;12042;52.136;5.584;2023-03-31T14:07:20;12.50;99.90
23723;DHT22;12042;52.136;5.584;2023-03-31T14:09:51;12.50;99.90
23723;DHT22;12042;52.136;5.584;2023-03-31T14:12:34;12.50;99.90
23723;DHT22;12042;52.136;5.584;2023-03-31T14:15:01;12.40;99.90
23723;DHT22;12042;52.136;5.584;2023-03-31T14:17:30;12.40;99.90
23723;DHT22;12042;52.136;5.584;2023-03-31T14:23:03;12.50;99.90
23723;DHT22;12042;52.136;5.584;2023-03-31T14:26:41;12.40;99.90
23723;DHT22;12042;52.136;5.584;2023-03-31T14:31:36;12.50;99.90
23723;DHT22;12042;52.136;5.584;2023-03-31T14:37:12;12.60;99.90
23723;DHT22;12042;52.136;5.584;2023-03-31T14:39:45;12.70;99.90
23723;DHT22;12042;52.136;5.584;2023-03-31T14:42:14;12.60;99.90
23723;DHT22;12042;52.136;5.584;2023-03-31T14:44:41;12.40;99.90
23723;DHT22;12042;52.136;5.584;2023-03-31T14:47:25;12.30;99.90
23723;DHT22;12042;52.136;5.584;2023-03-31T14:50:14;12.30;99.90
23723;DHT22;12042;52.136;5.584;2023-03-31T14:52:49;12.10;99.90
23723;DHT22;12042;52.136;5.584;2023-03-31T14:55:17;12.20;99.90
23723;DHT22;12042;52.136;5.584;2023-03-31T14:57:45;12.10;99.90
23723;DHT22;12042;52.136;5.584;2023-03-31T15:00:21;12.10;99.90
23723;DHT22;12042;52.136;5.584;2023-03-31T15:02:48;12.10;99.90
23723;DHT22;12042;52.136;5.584;2023-03-31T15:05:35;12.10;99.90
23723;DHT22;12042;52.136;5.584;2023-03-31T15:08:03;12.10;99.90
23723;DHT22;12042;52.136;5.584;2023-03-31T15:10:36;12.20;99.90
23723;DHT22;12042;52.136;5.584;2023-03-31T15:13:16;12.20;99.90
23723;DHT22;12042;52.136;5.584;2023-03-31T15:15:43;12.30;99.90
23723;DHT22;12042;52.136;5.584;2023-03-31T15:18:19;12.30;99.90
23723;DHT22;12042;52.136;5.584;2023-03-31T15:20:45;12.40;99.90
23723;DHT22;12042;52.136;5.584;2023-03-31T15:25:52;12.40;99.90
23723;DHT22;12042;52.136;5.584;2023-03-31T15:28:20;12.40;99.90
23723;DHT22;12042;52.136;5.584;2023-03-31T15:30:48;12.40;99.90
23723;DHT22;12042;52.136;5.584;2023-03-31T15:33:21;12.30;99.90
23723;DHT22;12042;52.136;5.584;2023-03-31T15:35:48;12.40;99.90
23723;DHT22;12042;52.136;5.584;2023-03-31T15:38:14;12.30;99.90
23723;DHT22;12042;52.136;5.584;2023-03-31T15:40:43;12.30;99.90
23723;DHT22;12042;52.136;5.584;2023-03-31T15:45:37;12.20;99.90
23723;DHT22;12042;52.136;5.584;2023-03-31T15:48:04;12.20;99.90
23723;DHT22;12042;52.136;5.584;2023-03-31T15:50:32;12.10;99.90
23723;DHT22;12042;52.136;5.584;2023-03-31T15:52:58;12.10;99.90
23723;DHT22;12042;52.136;5.584;2023-03-31T15:55:39;12.00;99.90
23723;DHT22;12042;52.136;5.584;2023-03-31T15:58:07;12.00;99.90
23723;DHT22;12042;52.136;5.584;2023-03-31T16:00:39;11.90;99.90
23723;DHT22;12042;52.136;5.584;2023-03-31T16:03:27;11.90;99.90
23723;DHT22;12042;52.136;5.584;2023-03-31T16:05:57;11.90;99.90
23723;DHT22;12042;52.136;5.584;2023-03-31T16:08:31;11.90;99.90
23723;DHT22;12042;52.136;5.584;2023-03-31T16:11:10;11.80;99.90
23723;DHT22;12042;52.136;5.584;2023-03-31T16:13:41;11.80;99.90
23723;DHT22;12042;52.136;5.584;2023-03-31T16:16:15;11.70;99.90
23723;DHT22;12042;52.136;5.584;2023-03-31T16:18:45;11.60;99.90
23723;DHT22;12042;52.136;5.584;2023-03-31T16:21:12;11.60;99.90
23723;DHT22;12042;52.136;5.584;2023-03-31T16:23:40;11.60;99.90
23723;DHT22;12042;52.136;5.584;2023-03-31T16:26:09;11.50;99.90
23723;DHT22;12042;52.136;5.584;2023-03-31T16:28:36;11.50;99.90
23723;DHT22;12042;52.136;5.584;2023-03-31T16:31:03;11.50;99.90
23723;DHT22;12042;52.136;5.584;2023-03-31T16:33:31;11.50;99.90
23723;DHT22;12042;52.136;5.584;2023-03-31T16:36:15;11.60;99.90
23723;DHT22;12042;52.136;5.584;2023-03-31T16:38:42;11.50;99.90
23723;DHT22;12042;52.136;5.584;2023-03-31T16:41:07;11.50;99.90
23723;DHT22;12042;52.136;5.584;2023-03-31T16:43:33;11.50;99.90
23723;DHT22;12042;52.136;5.584;2023-03-31T16:46:00;11.40;99.90
23723;DHT22;12042;52.136;5.584;2023-03-31T16:48:29;11.40;99.90
23723;DHT22;12042;52.136;5.584;2023-03-31T16:50:58;11.30;99.90
23723;DHT22;12042;52.136;5.584;2023-03-31T16:53:26;11.30;99.90
23723;DHT22;12042;52.136;5.584;2023-03-31T16:55:53;11.20;99.90
23723;DHT22;12042;52.136;5.584;2023-03-31T16:58:19;11.10;99.90
23723;DHT22;12042;52.136;5.584;2023-03-31T17:00:46;11.00;99.90
23723;DHT22;12042;52.136;5.584;2023-03-31T17:03:12;11.00;99.90
23723;DHT22;12042;52.136;5.584;2023-03-31T17:05:39;11.00;99.90
23723;DHT22;12042;52.136;5.584;2023-03-31T17:08:05;10.90;99.90
23723;DHT22;12042;52.136;5.584;2023-03-31T17:10:33;10.90;99.90
23723;DHT22;12042;52.136;5.584;2023-03-31T17:12:58;10.80;99.90
23723;DHT22;12042;52.136;5.584;2023-03-31T17:15:25;10.80;99.90
23723;DHT22;12042;52.136;5.584;2023-03-31T17:17:51;10.90;99.90
23723;DHT22;12042;52.136;5.584;2023-03-31T17:20:17;10.90;99.90
23723;DHT22;12042;52.136;5.584;2023-03-31T17:22:42;10.90;99.90
23723;DHT22;12042;52.136;5.584;2023-03-31T17:25:10;10.90;99.90
23723;DHT22;12042;52.136;5.584;2023-03-31T17:27:36;10.80;99.90
23723;DHT22;12042;52.136;5.584;2023-03-31T17:30:02;10.80;99.90
23723;DHT22;12042;52.136;5.584;2023-03-31T17:32:28;10.70;99.90
23723;DHT22;12042;52.136;5.584;2023-03-31T17:34:59;10.70;99.90
23723;DHT22;12042;52.136;5.584;2023-03-31T17:37:24;10.70;99.90
23723;DHT22;12042;52.136;5.584;2023-03-31T17:39:50;10.70;99.90
23723;DHT22;12042;52.136;5.584;2023-03-31T17:42:16;10.60;99.90
23723;DHT22;12042;52.136;5.584;2023-03-31T17:44:43;10.50;99.90
23723;DHT22;12042;52.136;5.584;2023-03-31T17:47:10;10.50;99.90
23723;DHT22;12042;52.136;5.584;2023-03-31T17:49:36;10.50;99.90
23723;DHT22;12042;52.136;5.584;2023-03-31T17:52:02;10.50;99.90
23723;DHT22;12042;52.136;5.584;2023-03-31T17:54:28;10.50;99.90
23723;DHT22;12042;52.136;5.584;2023-03-31T17:56:53;10.50;99.90
23723;DHT22;12042;52.136;5.584;2023-03-31T17:59:19;10.50;99.90
23723;DHT22;12042;52.136;5.584;2023-03-31T18:01:45;10.50;99.90
23723;DHT22;12042;52.136;5.584;2023-03-31T18:04:12;10.50;99.90
23723;DHT22;12042;52.136;5.584;2023-03-31T18:06:38;10.50;99.90
23723;DHT22;12042;52.136;5.584;2023-03-31T18:09:03;10.50;99.90
23723;DHT22;12042;52.136;5.584;2023-03-31T18:11:30;10.60;99.90
23723;DHT22;12042;52.136;5.584;2023-03-31T18:13:57;10.60;99.90
23723;DHT22;12042;52.136;5.584;2023-03-31T18:16:26;10.60;99.90
23723;DHT22;12042;52.136;5.584;2023-03-31T18:18:52;10.60;99.90
23723;DHT22;12042;52.136;5.584;2023-03-31T18:21:18;10.60;99.90
23723;DHT22;12042;52.136;5.584;2023-03-31T18:23:43;10.60;99.90
23723;DHT22;12042;52.136;5.584;2023-03-31T18:26:11;10.60;99.90
23723;DHT22;12042;52.136;5.584;2023-03-31T18:28:37;10.60;99.90
23723;DHT22;12042;52.136;5.584;2023-03-31T18:31:06;10.60;99.90
23723;DHT22;12042;52.136;5.584;2023-03-31T18:33:33;10.60;99.90
23723;DHT22;12042;52.136;5.584;2023-03-31T18:35:59;10.60;99.90
23723;DHT22;12042;52.136;5.584;2023-03-31T18:38:25;10.60;99.90
23723;DHT22;12042;52.136;5.584;2023-03-31T18:40:51;10.60;99.90
23723;DHT22;12042;52.136;5.584;2023-03-31T18:43:18;10.60;99.90
23723;DHT22;12042;52.136;5.584;2023-03-31T18:45:47;10.60;99.90
23723;DHT22;12042;52.136;5.584;2023-03-31T18:48:14;10.60;99.90
23723;DHT22;12042;52.136;5.584;2023-03-31T18:50:39;10.60;99.90
23723;DHT22;12042;52.136;5.584;2023-03-31T18:53:05;10.60;99.90
23723;DHT22;12042;52.136;5.584;2023-03-31T18:55:31;10.60;99.90
23723;DHT22;12042;52.136;5.584;2023-03-31T18:57:56;10.50;99.90
23723;DHT22;12042;52.136;5.584;2023-03-31T19:00:22;10.60;99.90
23723;DHT22;12042;52.136;5.584;2023-03-31T19:02:51;10.60;99.90
23723;DHT22;12042;52.136;5.584;2023-03-31T19:05:18;10.60;99.90
23723;DHT22;12042;52.136;5.584;2023-03-31T19:07:44;10.60;99.90
23723;DHT22;12042;52.136;5.584;2023-03-31T19:10:10;10.60;99.90
23723;DHT22;12042;52.136;5.584;2023-03-31T19:12:36;10.60;99.90
23723;DHT22;12042;52.136;5.584;2023-03-31T19:15:02;10.60;99.90
23723;DHT22;12042;52.136;5.584;2023-03-31T19:17:28;10.60;99.90
23723;DHT22;12042;52.136;5.584;2023-03-31T19:19:54;10.70;99.90
23723;DHT22;12042;52.136;5.584;2023-03-31T19:22:20;10.70;99.90
23723;DHT22;12042;52.136;5.584;2023-03-31T19:24:45;10.70;99.90
23723;DHT22;12042;52.136;5.584;2023-03-31T19:27:11;10.60;99.90
23723;DHT22;12042;52.136;5.584;2023-03-31T19:29:37;10.50;99.90
23723;DHT22;12042;52.136;5.584;2023-03-31T19:32:03;10.60;99.90
23723;DHT22;12042;52.136;5.584;2023-03-31T19:34:29;10.60;99.90
23723;DHT22;12042;52.136;5.584;2023-03-31T19:36:54;10.60;99.90
23723;DHT22;12042;52.136;5.584;2023-03-31T19:39:21;10.60;99.90
23723;DHT22;12042;52.136;5.584;2023-03-31T19:41:46;10.60;99.90
23723;DHT22;12042;52.136;5.584;2023-03-31T19:44:12;10.50;99.90
23723;DHT22;12042;52.136;5.584;2023-03-31T19:46:38;10.50;99.90
23723;DHT22;12042;52.136;5.584;2023-03-31T19:49:03;10.60;99.90
23723;DHT22;12042;52.136;5.584;2023-03-31T19:51:29;10.60;99.90
23723;DHT22;12042;52.136;5.584;2023-03-31T19:53:55;10.60;99.90
23723;DHT22;12042;52.136;5.584;2023-03-31T19:56:21;10.50;99.90
23723;DHT22;12042;52.136;5.584;2023-03-31T19:58:50;10.50;99.90
23723;DHT22;12042;52.136;5.584;2023-03-31T20:01:22;10.60;99.90
23723;DHT22;12042;52.136;5.584;2023-03-31T20:03:48;10.60;99.90
23723;DHT22;12042;52.136;5.584;2023-03-31T20:06:18;10.60;99.90
23723;DHT22;12042;52.136;5.584;2023-03-31T20:08:45;10.60;99.90
23723;DHT22;12042;52.136;5.584;2023-03-31T20:11:13;10.60;99.90
23723;DHT22;12042;52.136;5.584;2023-03-31T20:13:46;10.50;99.90
23723;DHT22;12042;52.136;5.584;2023-03-31T20:16:18;10.50;99.90
23723;DHT22;12042;52.136;5.584;2023-03-31T20:18:45;10.50;99.90
23723;DHT22;12042;52.136;5.584;2023-03-31T20:21:16;10.50;99.90
23723;DHT22;12042;52.136;5.584;2023-03-31T20:23:49;10.50;99.90
23723;DHT22;12042;52.136;5.584;2023-03-31T20:26:18;10.50;99.90
23723;DHT22;12042;52.136;5.584;2023-03-31T20:28:45;10.50;99.90
23723;DHT22;12042;52.136;5.584;2023-03-31T20:31:22;10.50;99.90
23723;DHT22;12042;52.136;5.584;2023-03-31T20:33:50;10.50;99.90
23723;DHT22;12042;52.136;5.584;2023-03-31T20:36:18;10.50;99.90
23723;DHT22;12042;52.136;5.584;2023-03-31T20:38:46;10.60;99.90
23723;DHT22;12042;52.136;5.584;2023-03-31T20:41:12;10.50;99.90
23723;DHT22;12042;52.136;5.584;2023-03-31T20:43:38;10.50;99.90
23723;DHT22;12042;52.136;5.584;2023-03-31T20:46:06;10.50;99.90
23723;DHT22;12042;52.136;5.584;2023-03-31T20:48:45;10.50;99.90
23723;DHT22;12042;52.136;5.584;2023-03-31T20:51:14;10.40;99.90
23723;DHT22;12042;52.136;5.584;2023-03-31T20:53:44;10.40;99.90
23723;DHT22;12042;52.136;5.584;2023-03-31T20:56:25;10.50;99.90
23723;DHT22;12042;52.136;5.584;2023-03-31T20:58:51;10.50;99.90
23723;DHT22;12042;52.136;5.584;2023-03-31T21:01:22;10.50;99.90
23723;DHT22;12042;52.136;5.584;2023-03-31T21:03:48;10.50;99.90
23723;DHT22;12042;52.136;5.584;2023-03-31T21:06:15;10.50;99.90
23723;DHT22;12042;52.136;5.584;2023-03-31T21:08:43;10.40;99.90
23723;DHT22;12042;52.136;5.584;2023-03-31T21:11:10;10.40;99.90
23723;DHT22;12042;52.136;5.584;2023-03-31T21:13:37;10.40;99.90
23723;DHT22;12042;52.136;5.584;2023-03-31T21:16:03;10.40;99.90
23723;DHT22;12042;52.136;5.584;2023-03-31T21:18:32;10.40;99.90
23723;DHT22;12042;52.136;5.584;2023-03-31T21:21:11;10.40;99.90
23723;DHT22;12042;52.136;5.584;2023-03-31T21:23:37;10.40;99.90
23723;DHT22;12042;52.136;5.584;2023-03-31T21:26:05;10.40;99.90
23723;DHT22;12042;52.136;5.584;2023-03-31T21:28:33;10.40;99.90
